Bogachiel, Washington
Current Conditions -  °F | °C
As of 9:18 AM on Sunday 23 Nov 2014 (Local Time) from KUIL Reporting Station
Haze Haze  
Wind Chill: 51°   Ceiling: 2300
Heat Index: 51°   Visibility: 5mi
Dew Point: 48°   Wind: 6mph
Humidity: 89%   Direction: 280°W
Pressure: 30.1"   Gusts: NA
Location:  47.9519°N, 124.29°W
Report Text: KUIL 231718Z AUTO 28005KT 5SM BR BKN023 BKN031 BKN065 11/09 A3010 RMK AO2 T01060089
Loading
Personal Weather Stations






























Interactive Weather Map New forecast layout! Learn more

10-Day Weather Forecast

Advertisements
Track Severe Weather on mobile